createdAt,value
2022-09-23T00:01:24.030Z,3.95
2022-09-23T00:03:50.423Z,3.93
2022-09-23T00:06:21.461Z,3.94
2022-09-23T00:08:49.653Z,3.94
2022-09-23T00:11:17.746Z,3.92
2022-09-23T00:13:46.719Z,3.91
2022-09-23T00:16:14.634Z,3.85
2022-09-23T00:18:42.046Z,3.84
2022-09-23T00:21:10.811Z,3.79
2022-09-23T00:23:37.878Z,3.76
2022-09-23T00:26:05.376Z,3.71
2022-09-23T00:28:33.064Z,3.72
2022-09-23T00:31:07.533Z,3.71
2022-09-23T00:33:34.234Z,3.71
2022-09-23T00:36:01.974Z,3.69
2022-09-23T00:38:28.557Z,3.65
2022-09-23T00:40:54.958Z,3.63
2022-09-23T00:43:36.897Z,3.62
2022-09-23T00:46:03.693Z,3.61
2022-09-23T00:48:30.094Z,3.59
2022-09-23T00:50:56.410Z,3.59
2022-09-23T00:53:24.143Z,3.57
2022-09-23T00:55:53.109Z,3.55
2022-09-23T00:58:21.650Z,3.55
2022-09-23T01:00:47.975Z,3.57
2022-09-23T01:03:14.400Z,3.58
2022-09-23T01:05:41.801Z,3.58
2022-09-23T01:08:10.123Z,3.58
2022-09-23T01:10:43.110Z,3.56
2022-09-23T01:13:20.234Z,3.55
2022-09-23T01:15:51.473Z,3.54
2022-09-23T01:18:35.045Z,3.53
2022-09-23T01:21:04.402Z,3.49
2022-09-23T01:23:36.850Z,3.45
2022-09-23T01:26:19.287Z,3.43
2022-09-23T01:29:02.417Z,3.42
2022-09-23T01:31:43.419Z,3.41
2022-09-23T01:34:19.587Z,3.41
2022-09-23T01:36:57.958Z,3.37
2022-09-23T01:39:39.578Z,3.37
2022-09-23T01:42:26.324Z,3.36
2022-09-23T01:44:59.620Z,3.37
2022-09-23T01:47:37.664Z,3.36
2022-09-23T01:50:26.027Z,3.40
2022-09-23T01:52:54.994Z,3.42
2022-09-23T01:55:34.478Z,3.44
2022-09-23T01:58:09.799Z,3.44
2022-09-23T02:00:40.834Z,3.45
2022-09-23T02:03:15.549Z,3.45
2022-09-23T02:05:47.734Z,3.46
2022-09-23T02:08:16.637Z,3.45
2022-09-23T02:10:51.302Z,3.43
2022-09-23T02:13:24.510Z,3.42
2022-09-23T02:15:53.323Z,3.39
2022-09-23T02:18:21.923Z,3.36
2022-09-23T02:20:50.600Z,3.34
2022-09-23T02:23:20.127Z,3.33
2022-09-23T02:26:05.735Z,3.30
2022-09-23T02:28:34.527Z,3.27
2022-09-23T02:31:11.903Z,3.23
2022-09-23T02:33:43.743Z,3.20
2022-09-23T02:36:13.909Z,3.14
2022-09-23T02:38:46.409Z,3.13
2022-09-23T02:41:18.386Z,3.07
2022-09-23T02:43:51.953Z,3.05
2022-09-23T02:46:18.750Z,3.04
2022-09-23T02:48:53.659Z,3.00
2022-09-23T02:51:19.982Z,3.00
2022-09-23T02:53:46.647Z,2.99
2022-09-23T02:56:17.331Z,2.99
2022-09-23T02:58:43.820Z,2.97
2022-09-23T03:01:16.061Z,2.95
2022-09-23T03:03:51.964Z,2.93
2022-09-23T03:06:21.275Z,2.92
2022-09-23T03:08:58.159Z,2.90
2022-09-23T03:11:24.752Z,2.85
2022-09-23T03:14:07.063Z,2.85
2022-09-23T03:16:39.819Z,2.82
2022-09-23T03:19:24.407Z,2.78
2022-09-23T03:22:01.097Z,2.79
2022-09-23T03:24:31.351Z,2.76
2022-09-23T03:27:01.059Z,2.73
2022-09-23T03:29:29.052Z,2.71
2022-09-23T03:31:57.142Z,2.69
2022-09-23T03:34:27.124Z,2.68
2022-09-23T03:37:02.686Z,2.67
2022-09-23T03:39:40.284Z,2.63
2022-09-23T03:42:12.617Z,2.63
2022-09-23T03:44:44.444Z,2.57
2022-09-23T03:47:12.640Z,2.57
2022-09-23T03:49:39.806Z,2.55
2022-09-23T03:52:06.331Z,2.55
2022-09-23T03:54:33.942Z,2.53
2022-09-23T03:57:01.015Z,2.51
2022-09-23T03:59:28.022Z,2.46
2022-09-23T04:01:55.482Z,2.41
2022-09-23T04:04:22.272Z,2.42
2022-09-23T04:06:50.196Z,2.37
2022-09-23T04:09:16.905Z,2.35
2022-09-23T04:11:43.279Z,2.34
2022-09-23T04:14:10.385Z,2.32
2022-09-23T04:16:36.789Z,2.33
2022-09-23T04:19:04.968Z,2.32
2022-09-23T04:21:31.927Z,2.26
2022-09-23T04:23:58.350Z,2.26
2022-09-23T04:26:24.759Z,2.25
2022-09-23T04:28:51.090Z,2.25
2022-09-23T04:31:17.800Z,2.24
2022-09-23T04:33:44.129Z,2.22
2022-09-23T04:36:10.520Z,2.23
2022-09-23T04:38:36.837Z,2.22
2022-09-23T04:41:03.259Z,2.18
2022-09-23T04:43:29.579Z,2.15
2022-09-23T04:45:59.745Z,2.16
2022-09-23T04:48:26.563Z,2.11
2022-09-23T04:50:52.905Z,2.13
2022-09-23T04:53:19.284Z,2.11
2022-09-23T04:55:49.777Z,2.08
2022-09-23T04:58:16.201Z,2.08
2022-09-23T05:00:42.584Z,2.07
2022-09-23T05:03:09.113Z,2.09
2022-09-23T05:05:35.422Z,2.07
2022-09-23T05:08:01.837Z,2.07
2022-09-23T05:10:28.188Z,2.08
2022-09-23T05:12:57.275Z,2.08
2022-09-23T05:15:23.907Z,2.08
2022-09-23T05:17:50.203Z,2.08
2022-09-23T05:20:17.820Z,2.09
2022-09-23T05:22:45.053Z,2.09
2022-09-23T05:25:11.371Z,2.11
2022-09-23T05:27:38.208Z,2.15
2022-09-23T05:30:04.875Z,2.16
2022-09-23T05:32:31.846Z,2.17
2022-09-23T05:34:58.407Z,2.19
2022-09-23T05:37:25.312Z,2.21
2022-09-23T05:39:51.631Z,2.25
2022-09-23T05:42:18.251Z,2.29
2022-09-23T05:44:44.584Z,2.31
2022-09-23T05:47:10.933Z,2.35
2022-09-23T05:49:58.113Z,2.40
2022-09-23T05:52:25.642Z,2.46
2022-09-23T05:54:51.955Z,2.50
2022-09-23T05:57:19.068Z,2.56
2022-09-23T05:59:47.664Z,2.66
2022-09-23T06:02:14.866Z,2.71
2022-09-23T06:04:41.399Z,2.79
2022-09-23T06:07:07.717Z,2.85
2022-09-23T06:09:36.517Z,2.93
2022-09-23T06:12:03.661Z,3.04
2022-09-23T06:14:30.414Z,3.16
2022-09-23T06:16:56.696Z,3.23
2022-09-23T06:19:23.018Z,3.33
2022-09-23T06:21:49.657Z,3.43
2022-09-23T06:24:20.289Z,3.52
2022-09-23T06:26:48.257Z,3.64
2022-09-23T06:29:14.618Z,3.78
2022-09-23T06:31:41.555Z,3.88
2022-09-23T06:34:12.831Z,3.99
2022-09-23T06:36:44.418Z,4.09
2022-09-23T06:39:11.761Z,4.22
2022-09-23T06:41:38.348Z,4.32
2022-09-23T06:44:04.848Z,4.47
2022-09-23T06:46:31.883Z,4.62
2022-09-23T06:48:58.406Z,4.85
2022-09-23T06:51:24.717Z,4.96
2022-09-23T06:53:51.131Z,5.04
2022-09-23T06:56:19.710Z,5.16
2022-09-23T06:58:46.213Z,5.28
2022-09-23T07:01:16.032Z,5.50
2022-09-23T07:03:43.001Z,5.76
2022-09-23T07:06:09.344Z,5.99
2022-09-23T07:08:36.050Z,6.12
2022-09-23T07:11:03.861Z,6.27
2022-09-23T07:13:30.593Z,6.50
2022-09-23T07:15:58.460Z,6.66
2022-09-23T07:18:25.948Z,6.83
2022-09-23T07:20:53.334Z,6.99
2022-09-23T07:23:19.809Z,7.23
2022-09-23T07:25:51.663Z,7.46
2022-09-23T07:28:19.048Z,7.70
2022-09-23T07:30:56.407Z,7.86
2022-09-23T07:33:32.204Z,7.96
2022-09-23T07:35:59.263Z,8.14
2022-09-23T07:38:30.173Z,8.23
2022-09-23T07:41:08.075Z,8.34
2022-09-23T07:43:34.545Z,8.50
2022-09-23T07:46:03.395Z,8.62
2022-09-23T07:48:34.056Z,8.74
2022-09-23T07:51:00.986Z,8.93
2022-09-23T07:53:27.335Z,9.03
2022-09-23T07:55:54.820Z,9.15
2022-09-23T07:58:21.442Z,9.27
2022-09-23T08:00:48.415Z,9.40
2022-09-23T08:03:15.009Z,9.53
2022-09-23T08:05:41.446Z,9.66
2022-09-23T08:08:07.781Z,9.68
2022-09-23T08:10:34.493Z,9.89
2022-09-23T08:13:03.357Z,9.98
2022-09-23T08:15:31.248Z,10.10
2022-09-23T08:17:58.101Z,10.20
2022-09-23T08:20:47.076Z,10.37
2022-09-23T08:23:14.909Z,10.45
2022-09-23T08:25:44.976Z,10.68
2022-09-23T08:28:16.041Z,10.82
2022-09-23T08:30:43.539Z,11.00
2022-09-23T08:33:10.979Z,11.08
2022-09-23T08:35:37.570Z,11.19
2022-09-23T08:38:04.019Z,11.26
2022-09-23T08:40:32.858Z,11.37
2022-09-23T08:43:00.108Z,11.58
2022-09-23T08:45:27.691Z,11.73
2022-09-23T08:48:13.248Z,11.89
2022-09-23T08:50:52.033Z,12.01
2022-09-23T08:53:26.272Z,12.21
2022-09-23T08:55:54.320Z,12.43
2022-09-23T08:58:37.771Z,12.84
2022-09-23T09:01:19.514Z,13.23
2022-09-23T09:03:51.969Z,13.60
2022-09-23T09:06:28.541Z,13.89
2022-09-23T09:08:57.107Z,13.99
2022-09-23T09:11:29.094Z,14.19
2022-09-23T09:14:10.824Z,14.55
2022-09-23T09:17:00.130Z,14.72
2022-09-23T09:19:47.547Z,14.94
2022-09-23T09:22:18.993Z,15.01
2022-09-23T09:24:48.560Z,15.21
2022-09-23T09:27:15.014Z,15.17
2022-09-23T09:29:44.461Z,15.22
2022-09-23T09:32:24.649Z,15.25
2022-09-23T09:34:54.632Z,15.15
2022-09-23T09:37:35.872Z,15.27
2022-09-23T09:40:02.632Z,15.31
2022-09-23T09:42:40.269Z,15.38
2022-09-23T09:45:15.578Z,15.48
2022-09-23T09:47:51.601Z,15.71
2022-09-23T09:50:36.613Z,15.74
2022-09-23T09:53:25.932Z,15.79
2022-09-23T09:56:03.709Z,15.89
2022-09-23T09:58:50.545Z,16.01
2022-09-23T10:01:26.295Z,16.01
2022-09-23T10:03:56.890Z,16.28
2022-09-23T10:06:26.623Z,16.37
2022-09-23T10:09:02.231Z,16.40
2022-09-23T10:11:29.235Z,16.48
2022-09-23T10:14:14.318Z,16.59
2022-09-23T10:16:41.998Z,16.79
2022-09-23T10:19:14.025Z,16.59
2022-09-23T10:21:42.797Z,16.57
2022-09-23T10:24:18.923Z,16.64
2022-09-23T10:26:52.261Z,16.57
2022-09-23T10:29:32.953Z,16.69
2022-09-23T10:32:17.444Z,16.86
2022-09-23T10:34:46.753Z,16.86
2022-09-23T10:37:24.505Z,16.94
2022-09-23T10:40:09.671Z,16.99
2022-09-23T10:43:10.058Z,17.04
2022-09-23T10:45:58.655Z,17.07
2022-09-23T10:48:37.192Z,16.88
2022-09-23T10:51:27.458Z,16.83
2022-09-23T10:53:53.739Z,16.75
2022-09-23T10:56:27.673Z,16.83
2022-09-23T10:59:09.377Z,16.96
2022-09-23T11:01:43.880Z,16.95
2022-09-23T11:04:19.428Z,16.98
2022-09-23T11:06:53.854Z,17.00
2022-09-23T11:09:26.019Z,16.77
2022-09-23T11:12:07.385Z,16.65
2022-09-23T11:14:52.526Z,16.49
2022-09-23T11:17:21.954Z,16.50
2022-09-23T11:19:48.288Z,16.62
2022-09-23T11:22:25.015Z,16.85
2022-09-23T11:25:10.306Z,16.82
2022-09-23T11:27:36.568Z,17.03
2022-09-23T11:30:07.073Z,17.32
2022-09-23T11:32:33.453Z,17.18
2022-09-23T11:35:11.137Z,16.94
2022-09-23T11:37:40.247Z,16.84
2022-09-23T11:40:19.160Z,16.80
2022-09-23T11:42:50.664Z,16.62
2022-09-23T11:45:21.431Z,16.52
2022-09-23T11:47:52.014Z,16.51
2022-09-23T11:50:38.706Z,16.32
2022-09-23T11:53:20.386Z,16.37
2022-09-23T11:55:57.845Z,16.38
2022-09-23T11:58:46.190Z,16.25
2022-09-23T12:01:31.152Z,16.20
2022-09-23T12:04:27.531Z,16.03
2022-09-23T12:06:58.753Z,15.93
2022-09-23T12:09:53.834Z,15.94
2022-09-23T12:12:25.068Z,15.89
2022-09-23T12:15:12.023Z,15.97
2022-09-23T12:17:41.534Z,16.05
2022-09-23T12:20:10.676Z,16.00
2022-09-23T12:22:52.830Z,16.01
2022-09-23T12:25:45.952Z,16.15
2022-09-23T12:28:15.475Z,16.41
2022-09-23T12:30:42.571Z,16.53
2022-09-23T12:33:11.874Z,16.67
2022-09-23T12:35:41.832Z,16.81
2022-09-23T12:38:14.219Z,16.88
2022-09-23T12:40:44.894Z,16.97
2022-09-23T12:43:30.373Z,17.05
2022-09-23T12:46:16.481Z,16.96
2022-09-23T12:48:44.142Z,16.96
2022-09-23T12:51:17.934Z,16.80
2022-09-23T12:53:47.205Z,16.81
2022-09-23T12:56:18.653Z,16.81
2022-09-23T12:58:44.931Z,16.74
2022-09-23T13:01:14.376Z,16.67
2022-09-23T13:04:08.306Z,16.60
2022-09-23T13:06:40.829Z,16.54
2022-09-23T13:09:14.154Z,16.53
2022-09-23T13:11:43.478Z,16.53
2022-09-23T13:14:11.464Z,16.64
2022-09-23T13:16:42.011Z,16.59
2022-09-23T13:19:26.853Z,16.58
2022-09-23T13:21:53.198Z,16.61
2022-09-23T13:24:19.710Z,16.55
2022-09-23T13:26:51.181Z,16.47
2022-09-23T13:29:24.457Z,16.49
2022-09-23T13:31:51.050Z,16.43
2022-09-23T13:34:20.547Z,16.78
2022-09-23T13:36:47.791Z,16.88
2022-09-23T13:39:22.906Z,17.05
2022-09-23T13:41:51.879Z,16.98
2022-09-23T13:44:20.071Z,17.05
2022-09-23T13:46:48.032Z,17.05
2022-09-23T13:49:23.218Z,17.02
2022-09-23T13:51:50.081Z,17.06
2022-09-23T13:54:28.899Z,17.14
2022-09-23T13:56:56.542Z,17.15
2022-09-23T13:59:27.484Z,17.12
2022-09-23T14:02:04.157Z,17.07
2022-09-23T14:04:30.613Z,16.97
2022-09-23T14:06:57.326Z,16.84
2022-09-23T14:09:27.407Z,16.90
2022-09-23T14:11:55.015Z,17.12
2022-09-23T14:14:23.175Z,17.25
2022-09-23T14:16:50.964Z,17.28
2022-09-23T14:19:18.575Z,17.37
2022-09-23T14:21:47.897Z,17.32
2022-09-23T14:24:15.609Z,17.28
2022-09-23T14:26:43.190Z,17.15
2022-09-23T14:29:17.631Z,17.07
2022-09-23T14:31:56.903Z,16.98
2022-09-23T14:34:38.637Z,16.84
2022-09-23T14:37:42.612Z,16.71
2022-09-23T14:40:14.896Z,16.54
2022-09-23T14:43:04.409Z,16.51
2022-09-23T14:45:33.326Z,16.56
2022-09-23T14:48:01.243Z,16.56
2022-09-23T14:50:37.770Z,16.64
2022-09-23T14:53:05.089Z,16.53
2022-09-23T14:55:31.544Z,16.59
2022-09-23T14:58:05.147Z,16.60
2022-09-23T15:00:31.544Z,16.68
2022-09-23T15:03:02.529Z,16.80
2022-09-23T15:05:40.863Z,16.85
2022-09-23T15:08:07.513Z,17.00
2022-09-23T15:10:37.528Z,17.02
2022-09-23T15:13:08.548Z,17.07
2022-09-23T15:15:35.749Z,16.97
2022-09-23T15:18:07.121Z,17.03
2022-09-23T15:20:34.238Z,17.00
2022-09-23T15:23:01.137Z,16.94
2022-09-23T15:25:32.137Z,16.98
2022-09-23T15:27:58.442Z,16.91
2022-09-23T15:30:25.028Z,16.90
2022-09-23T15:32:51.381Z,16.71
2022-09-23T15:35:19.250Z,16.52
2022-09-23T15:37:48.483Z,16.34
2022-09-23T15:40:35.190Z,16.26
2022-09-23T15:43:31.046Z,16.09
2022-09-23T15:46:05.558Z,15.98
2022-09-23T15:48:38.515Z,15.89
2022-09-23T15:51:06.949Z,15.75
2022-09-23T15:53:33.599Z,15.64
2022-09-23T15:56:00.489Z,15.52
2022-09-23T15:58:27.837Z,15.40
2022-09-23T16:00:56.801Z,15.25
2022-09-23T16:03:28.953Z,15.11
2022-09-23T16:05:58.087Z,14.98
2022-09-23T16:08:25.782Z,14.85
2022-09-23T16:10:53.344Z,14.76
2022-09-23T16:13:19.663Z,14.58
2022-09-23T16:15:50.494Z,14.49
2022-09-23T16:18:16.846Z,14.40
2022-09-23T16:20:45.044Z,14.31
2022-09-23T16:23:39.885Z,14.22
2022-09-23T16:26:22.649Z,14.11
2022-09-23T16:28:49.817Z,13.99
2022-09-23T16:31:16.785Z,13.90
2022-09-23T16:33:47.228Z,13.80
2022-09-23T16:36:28.714Z,13.69
2022-09-23T16:38:55.553Z,13.56
2022-09-23T16:41:23.261Z,13.45
2022-09-23T16:43:50.542Z,13.34
2022-09-23T16:46:18.001Z,13.25
2022-09-23T16:48:49.694Z,13.14
2022-09-23T16:51:26.602Z,13.00
2022-09-23T16:53:55.375Z,12.87
2022-09-23T16:56:27.958Z,12.75
2022-09-23T16:58:55.186Z,12.64
2022-09-23T17:01:41.283Z,12.55
2022-09-23T17:04:10.518Z,12.43
2022-09-23T17:06:42.231Z,12.35
2022-09-23T17:09:08.825Z,12.29
2022-09-23T17:11:35.360Z,12.20
2022-09-23T17:14:01.668Z,12.15
2022-09-23T17:16:29.480Z,12.09
2022-09-23T17:18:56.121Z,12.02
2022-09-23T17:21:26.531Z,11.99
2022-09-23T17:23:56.688Z,11.93
2022-09-23T17:26:24.404Z,11.86
2022-09-23T17:28:58.538Z,11.79
2022-09-23T17:31:25.474Z,11.73
2022-09-23T17:33:52.724Z,11.67
2022-09-23T17:36:19.827Z,11.60
2022-09-23T17:38:47.008Z,11.54
2022-09-23T17:41:14.117Z,11.47
2022-09-23T17:43:40.704Z,11.43
2022-09-23T17:46:12.923Z,11.37
2022-09-23T17:48:41.382Z,11.29
2022-09-23T17:51:10.991Z,11.20
2022-09-23T17:53:38.686Z,11.13
2022-09-23T17:56:06.848Z,11.07
2022-09-23T17:58:34.696Z,11.00
2022-09-23T18:01:01.078Z,10.93
2022-09-23T18:03:28.576Z,10.87
2022-09-23T18:05:54.984Z,10.78
2022-09-23T18:08:21.380Z,10.72
2022-09-23T18:10:47.671Z,10.66
2022-09-23T18:13:14.389Z,10.59
2022-09-23T18:15:40.900Z,10.53
2022-09-23T18:18:07.232Z,10.50
2022-09-23T18:20:33.605Z,10.43
2022-09-23T18:23:00.055Z,10.40
2022-09-23T18:25:39.057Z,10.34
2022-09-23T18:28:06.322Z,10.25
2022-09-23T18:30:32.969Z,10.22
2022-09-23T18:32:59.743Z,10.17
2022-09-23T18:35:26.082Z,10.12
2022-09-23T18:37:52.439Z,10.06
2022-09-23T18:40:19.130Z,10.00
2022-09-23T18:42:45.517Z,9.99
2022-09-23T18:45:11.900Z,9.96
2022-09-23T18:47:56.930Z,9.92
2022-09-23T18:50:43.200Z,9.89
2022-09-23T18:53:09.662Z,9.88
2022-09-23T18:55:36.601Z,9.83
2022-09-23T18:58:03.165Z,9.78
2022-09-23T19:00:30.071Z,9.74
2022-09-23T19:02:56.473Z,9.70
2022-09-23T19:05:22.786Z,9.67
2022-09-23T19:07:49.130Z,9.66
2022-09-23T19:10:15.470Z,9.61
2022-09-23T19:12:41.777Z,9.58
2022-09-23T19:15:08.258Z,9.52
2022-09-23T19:17:34.564Z,9.45
2022-09-23T19:20:00.970Z,9.37
2022-09-23T19:22:27.423Z,9.32
2022-09-23T19:24:53.708Z,9.25
2022-09-23T19:27:20.015Z,9.22
2022-09-23T19:29:47.396Z,9.17
2022-09-23T19:32:15.998Z,9.12
2022-09-23T19:34:43.601Z,9.05
2022-09-23T19:37:10.046Z,9.02
2022-09-23T19:39:37.503Z,9.00
2022-09-23T19:42:04.013Z,8.95
2022-09-23T19:44:30.336Z,8.99
2022-09-23T19:46:57.434Z,9.01
2022-09-23T19:49:24.971Z,9.03
2022-09-23T19:51:51.797Z,9.04
2022-09-23T19:54:20.599Z,9.06
2022-09-23T19:56:48.635Z,9.04
2022-09-23T19:59:18.459Z,9.01
2022-09-23T20:01:45.816Z,9.00
2022-09-23T20:04:12.289Z,8.97
2022-09-23T20:06:38.897Z,8.94
2022-09-23T20:09:05.434Z,8.92
2022-09-23T20:11:32.461Z,8.88
2022-09-23T20:14:04.755Z,8.83
2022-09-23T20:16:35.052Z,8.83
2022-09-23T20:19:02.837Z,8.78
2022-09-23T20:21:29.509Z,8.77
2022-09-23T20:23:56.275Z,8.74
2022-09-23T20:26:41.488Z,8.74
2022-09-23T20:29:08.906Z,8.71
2022-09-23T20:31:35.417Z,8.67
2022-09-23T20:34:05.440Z,8.61
2022-09-23T20:36:32.101Z,8.54
2022-09-23T20:38:59.787Z,8.50
2022-09-23T20:41:29.863Z,8.47
2022-09-23T20:43:58.808Z,8.42
2022-09-23T20:46:25.886Z,8.36
2022-09-23T20:49:21.374Z,8.31
2022-09-23T20:51:53.853Z,8.25
2022-09-23T20:54:20.152Z,8.20
2022-09-23T20:56:47.108Z,8.15
2022-09-23T20:59:14.828Z,8.11
2022-09-23T21:01:41.671Z,8.06
2022-09-23T21:04:09.623Z,8.01
2022-09-23T21:06:36.717Z,7.98
2022-09-23T21:09:03.984Z,7.95
2022-09-23T21:11:31.978Z,7.92
2022-09-23T21:14:01.052Z,7.93
2022-09-23T21:16:27.878Z,7.91
2022-09-23T21:18:54.243Z,7.93
2022-09-23T21:21:22.169Z,7.95
2022-09-23T21:23:49.303Z,7.95
2022-09-23T21:26:20.106Z,7.96
2022-09-23T21:28:48.463Z,7.98
2022-09-23T21:31:22.982Z,7.98
2022-09-23T21:33:58.987Z,7.99
2022-09-23T21:36:26.336Z,8.00
2022-09-23T21:38:53.347Z,8.06
2022-09-23T21:41:20.131Z,8.08
2022-09-23T21:43:46.459Z,8.11
2022-09-23T21:46:14.236Z,8.11
2022-09-23T21:48:42.349Z,8.13
2022-09-23T21:51:11.791Z,8.16
2022-09-23T21:53:38.461Z,8.19
2022-09-23T21:56:04.862Z,8.23
2022-09-23T21:58:32.053Z,8.24
2022-09-23T22:00:58.642Z,8.29
2022-09-23T22:03:26.589Z,8.32
2022-09-23T22:06:03.233Z,8.35
2022-09-23T22:08:30.524Z,8.38
2022-09-23T22:10:56.823Z,8.43
2022-09-23T22:13:23.105Z,8.43
2022-09-23T22:15:49.562Z,8.46
2022-09-23T22:18:15.975Z,8.46
2022-09-23T22:20:42.421Z,8.44
2022-09-23T22:23:08.780Z,8.44
2022-09-23T22:25:35.182Z,8.45
2022-09-23T22:28:19.967Z,8.47
2022-09-23T22:31:05.031Z,8.47
2022-09-23T22:33:31.851Z,8.49
2022-09-23T22:36:02.144Z,8.49
2022-09-23T22:38:29.658Z,8.48
2022-09-23T22:40:56.055Z,8.49
2022-09-23T22:43:22.529Z,8.49
2022-09-23T22:45:49.913Z,8.50
2022-09-23T22:48:18.142Z,8.50
2022-09-23T22:50:45.798Z,8.51
2022-09-23T22:53:13.873Z,8.51
2022-09-23T22:55:41.949Z,8.53
2022-09-23T22:58:30.695Z,8.56
2022-09-23T23:00:57.097Z,8.59
2022-09-23T23:03:24.158Z,8.62
2022-09-23T23:05:51.684Z,8.63
2022-09-23T23:08:18.006Z,8.65
2022-09-23T23:10:44.584Z,8.65
2022-09-23T23:13:10.982Z,8.68
2022-09-23T23:15:40.794Z,8.68
2022-09-23T23:18:07.230Z,8.68
2022-09-23T23:20:33.996Z,8.70
2022-09-23T23:23:01.369Z,8.72
2022-09-23T23:25:28.296Z,8.71
2022-09-23T23:27:55.716Z,8.71
2022-09-23T23:30:25.327Z,8.71
2022-09-23T23:32:52.008Z,8.71
2022-09-23T23:35:18.350Z,8.69
2022-09-23T23:37:44.829Z,8.70
2022-09-23T23:40:11.438Z,8.69
2022-09-23T23:42:37.810Z,8.66
2022-09-23T23:45:04.420Z,8.65
2022-09-23T23:47:30.847Z,8.65
2022-09-23T23:49:57.394Z,8.65
2022-09-23T23:52:23.695Z,8.64
2022-09-23T23:54:50.824Z,8.65
2022-09-23T23:57:17.153Z,8.65
2022-09-23T23:59:43.445Z,8.65
